Parma, Michigan
Current Conditions -  °F | °C
As of 10:56 AM on Sunday 23 Nov 2014 (Local Time) from KJXN Reporting Station
Overcast Overcast  
Wind Chill: 43°   Ceiling: 10000
Heat Index: 47°   Visibility: 10mi
Dew Point: 43°   Wind: 8mph
Humidity: 86%   Direction: 160°SSE
Pressure: 29.86"   Gusts: NA
Location:  42.26°N, 84.6°W
Report Text: KJXN 231556Z 16007KT 10SM FEW065 OVC100 08/06 A2986 RMK AO2 RAE02 SLP114 P0000 T00830061
Loading
Personal Weather Stations






























Interactive Weather Map New forecast layout! Learn more

10-Day Weather Forecast

Advertisements
Track Severe Weather on mobile